createdAt,value
2022-09-12T08:39:12.085Z,21.54
2022-09-12T08:40:50.970Z,22.15
2022-09-12T08:42:29.001Z,22.81
2022-09-12T08:44:12.757Z,23.40
2022-09-12T08:45:47.782Z,23.80
2022-09-12T08:47:20.262Z,24.11
2022-09-12T08:48:51.897Z,24.32
2022-09-12T08:50:23.281Z,24.50
2022-09-12T08:51:54.853Z,24.60
2022-09-12T08:53:26.247Z,24.67
2022-09-12T08:54:57.675Z,24.70
2022-09-12T08:56:31.705Z,24.78
2022-09-12T08:58:13.663Z,24.88
2022-09-12T08:59:45.366Z,24.97
2022-09-12T09:01:22.899Z,25.04
2022-09-12T09:03:17.429Z,25.09
2022-09-12T09:04:52.215Z,25.15
2022-09-12T09:06:29.475Z,25.18
2022-09-12T09:08:07.626Z,25.20
2022-09-12T09:09:39.060Z,25.23
2022-09-12T09:11:15.887Z,25.23
2022-09-12T09:12:55.256Z,25.24
2022-09-12T09:14:42.000Z,25.25
2022-09-12T09:16:19.169Z,25.30
2022-09-12T09:17:51.824Z,25.32
2022-09-12T09:19:36.995Z,25.32
2022-09-12T09:21:10.618Z,25.30
2022-09-12T09:22:46.325Z,25.27
2022-09-12T09:24:18.407Z,25.26
2022-09-12T09:26:08.246Z,25.26
2022-09-12T09:27:47.014Z,25.22
2022-09-12T09:29:19.212Z,25.05
2022-09-12T09:30:50.707Z,24.95
2022-09-12T09:32:42.433Z,24.95
2022-09-12T09:34:23.707Z,24.97
2022-09-12T09:36:12.341Z,25.02
2022-09-12T09:37:44.834Z,25.07
2022-09-12T09:39:35.226Z,25.09
2022-09-12T09:41:15.774Z,25.09
2022-09-12T09:42:56.313Z,25.11
2022-09-12T09:44:30.708Z,25.10
2022-09-12T09:46:02.132Z,25.11
2022-09-12T09:47:33.579Z,25.11
2022-09-12T09:49:05.002Z,25.11
2022-09-12T09:50:39.168Z,25.11
2022-09-12T09:52:11.397Z,25.11
2022-09-12T09:53:50.762Z,25.12
2022-09-12T09:55:25.524Z,25.05
2022-09-12T09:56:57.054Z,25.05
2022-09-12T09:58:37.682Z,25.02
2022-09-12T10:00:28.896Z,25.00
2022-09-12T10:02:02.291Z,24.97
2022-09-12T10:03:37.862Z,24.95
2022-09-12T10:05:16.547Z,24.92
2022-09-12T10:06:48.143Z,24.94
2022-09-12T10:08:38.557Z,24.87
2022-09-12T10:10:12.990Z,24.85
2022-09-12T10:11:46.129Z,24.81
2022-09-12T10:13:42.040Z,24.83
2022-09-12T10:15:21.901Z,24.82
2022-09-12T10:16:53.423Z,24.84
2022-09-12T10:18:43.446Z,24.83
2022-09-12T10:20:43.723Z,24.83
2022-09-12T10:22:19.010Z,24.85
2022-09-12T10:24:34.110Z,24.88
2022-09-12T10:26:09.687Z,24.93
2022-09-12T10:27:41.292Z,24.93
2022-09-12T10:29:16.316Z,24.95
2022-09-12T10:30:51.990Z,24.93
2022-09-12T10:32:30.912Z,24.97
2022-09-12T10:34:02.806Z,24.97
2022-09-12T10:35:43.641Z,24.95
2022-09-12T10:37:31.988Z,24.94
2022-09-12T10:39:03.599Z,24.95
2022-09-12T10:40:39.531Z,24.94
2022-09-12T10:42:12.379Z,24.98
2022-09-12T10:43:43.923Z,25.02
2022-09-12T10:45:19.381Z,25.02
2022-09-12T10:46:50.983Z,25.03
2022-09-12T10:48:32.126Z,25.06
2022-09-12T10:50:32.337Z,25.07
2022-09-12T10:52:22.996Z,25.05
2022-09-12T10:54:05.137Z,25.02
2022-09-12T10:55:36.699Z,25.05
2022-09-12T10:57:20.396Z,25.06
2022-09-12T10:58:59.592Z,25.10
2022-09-12T11:00:31.137Z,25.12
2022-09-12T11:02:29.155Z,25.14
2022-09-12T11:04:21.800Z,25.18
2022-09-12T11:05:55.707Z,25.20
2022-09-12T11:07:38.779Z,25.21
2022-09-12T11:09:14.371Z,25.22
2022-09-12T11:10:45.813Z,25.25
2022-09-12T11:12:24.814Z,25.26
2022-09-12T11:14:32.446Z,25.15
2022-09-12T11:16:25.304Z,25.34
2022-09-12T11:18:00.885Z,25.34
2022-09-12T11:19:37.966Z,25.27
2022-09-12T11:21:18.443Z,25.22
2022-09-12T11:22:59.220Z,25.24
2022-09-12T11:24:45.387Z,25.29
2022-09-12T11:26:32.054Z,25.32
2022-09-12T11:28:13.126Z,25.32
2022-09-12T11:30:08.662Z,25.40
2022-09-12T11:31:49.117Z,25.41
2022-09-12T11:33:39.653Z,25.35
2022-09-12T11:35:22.483Z,25.37
2022-09-12T11:37:18.139Z,25.37
2022-09-12T11:38:59.687Z,25.39
2022-09-12T11:40:49.765Z,25.42
2022-09-12T11:42:31.833Z,25.51
2022-09-12T11:44:09.723Z,25.47
2022-09-12T11:45:42.788Z,25.48
2022-09-12T11:47:14.663Z,25.51
2022-09-12T11:48:51.636Z,25.52
2022-09-12T11:50:26.669Z,25.55
2022-09-12T11:52:04.532Z,25.56
2022-09-12T11:53:39.707Z,25.65
2022-09-12T11:55:23.233Z,25.61
2022-09-12T11:57:01.220Z,25.63
2022-09-12T11:58:32.790Z,25.69
2022-09-12T12:00:06.455Z,25.70
2022-09-12T12:01:46.352Z,25.73
2022-09-12T12:03:22.674Z,25.74
2022-09-12T12:05:06.229Z,25.77
2022-09-12T12:06:49.525Z,25.75
2022-09-12T12:08:22.075Z,25.78
2022-09-12T12:09:53.609Z,25.80
2022-09-12T12:11:39.885Z,25.82
2022-09-12T12:13:22.343Z,25.90
2022-09-12T12:14:54.537Z,25.90
2022-09-12T12:16:27.016Z,25.82
2022-09-12T12:18:25.209Z,25.80
2022-09-12T12:20:03.544Z,25.77
2022-09-12T12:21:52.735Z,25.75
2022-09-12T12:23:27.410Z,25.74
2022-09-12T12:25:17.261Z,25.73
2022-09-12T12:26:51.053Z,25.80
2022-09-12T12:28:41.200Z,25.83
2022-09-12T12:30:38.683Z,25.73
2022-09-12T12:32:10.119Z,25.92
2022-09-12T12:33:44.481Z,25.94
2022-09-12T12:35:38.882Z,25.91
2022-09-12T12:37:19.043Z,25.90
2022-09-12T12:38:50.626Z,25.92
2022-09-12T12:40:24.278Z,25.92
2022-09-12T12:41:55.860Z,25.98
2022-09-12T12:43:31.502Z,26.00
2022-09-12T12:45:08.846Z,26.04
2022-09-12T12:46:40.538Z,26.08
2022-09-12T12:48:15.167Z,26.09
2022-09-12T12:49:53.588Z,26.12
2022-09-12T12:51:35.362Z,26.13
2022-09-12T12:53:23.373Z,26.15
2022-09-12T12:54:56.699Z,26.18
2022-09-12T12:56:30.963Z,26.22
2022-09-12T12:58:02.527Z,26.25
2022-09-12T12:59:33.937Z,26.25
2022-09-12T13:01:08.007Z,26.26
2022-09-12T13:02:40.389Z,26.30
2022-09-12T13:04:15.952Z,26.33
2022-09-12T13:05:47.971Z,26.37
2022-09-12T13:07:26.446Z,26.40
2022-09-12T13:09:04.693Z,26.44
2022-09-12T13:10:36.168Z,26.51
2022-09-12T13:12:08.946Z,26.56
2022-09-12T13:13:50.452Z,26.61
2022-09-12T13:15:37.357Z,26.64
2022-09-12T13:17:14.323Z,26.67
2022-09-12T13:18:46.709Z,26.70
2022-09-12T13:20:28.359Z,26.72
2022-09-12T13:22:00.903Z,26.77
2022-09-12T13:23:32.327Z,26.79
2022-09-12T13:25:17.254Z,26.83
2022-09-12T13:26:48.643Z,26.81
2022-09-12T13:28:20.035Z,26.83
2022-09-12T13:30:13.526Z,26.87
2022-09-12T13:31:55.208Z,26.88
2022-09-12T13:33:34.775Z,26.93
2022-09-12T13:35:22.038Z,26.91
2022-09-12T13:37:11.887Z,26.92
2022-09-12T13:38:46.043Z,26.92
2022-09-12T13:40:22.545Z,26.94
2022-09-12T13:41:54.010Z,26.95
2022-09-12T13:43:39.291Z,26.95
2022-09-12T13:45:14.639Z,26.98
2022-09-12T13:46:46.076Z,27.00
2022-09-12T13:48:18.393Z,27.06
2022-09-12T13:49:49.784Z,27.08
2022-09-12T13:51:22.718Z,27.09
2022-09-12T13:52:58.298Z,27.14
2022-09-12T13:54:29.700Z,27.15
2022-09-12T13:56:01.284Z,27.15
2022-09-12T13:57:36.665Z,27.15
2022-09-12T13:59:10.425Z,27.16
2022-09-12T14:00:41.826Z,27.18
2022-09-12T14:02:19.645Z,27.15
2022-09-12T14:03:51.163Z,27.11
2022-09-12T14:05:24.469Z,27.08
2022-09-12T14:06:55.860Z,27.04
2022-09-12T14:08:27.250Z,26.97
2022-09-12T14:09:59.231Z,26.92
2022-09-12T14:11:30.690Z,26.89
2022-09-12T14:13:02.957Z,26.87
2022-09-12T14:14:35.770Z,26.88
2022-09-12T14:16:07.273Z,26.89
2022-09-12T14:17:38.796Z,26.87
2022-09-12T14:19:10.740Z,26.87
2022-09-12T14:20:42.187Z,26.85
2022-09-12T14:22:13.595Z,26.84
2022-09-12T14:23:45.112Z,26.78
2022-09-12T14:25:17.447Z,26.75
2022-09-12T14:26:48.837Z,26.73
2022-09-12T14:28:23.439Z,26.73
2022-09-12T14:30:01.381Z,26.73
2022-09-12T14:31:34.280Z,26.74
2022-09-12T14:33:13.027Z,26.75
2022-09-12T14:35:03.398Z,26.77
2022-09-12T14:36:35.642Z,26.80
2022-09-12T14:38:17.693Z,26.85
2022-09-12T14:39:49.149Z,26.91
2022-09-12T14:41:25.212Z,26.94
2022-09-12T14:43:00.615Z,26.98
2022-09-12T14:44:32.919Z,27.00
2022-09-12T14:46:23.458Z,27.02
2022-09-12T14:47:54.887Z,27.05
2022-09-12T14:49:33.370Z,27.08
2022-09-12T14:51:04.847Z,27.07
2022-09-12T14:52:36.245Z,27.10
2022-09-12T14:54:23.738Z,27.13
2022-09-12T14:55:59.065Z,27.15
2022-09-12T14:57:34.685Z,27.16
2022-09-12T14:59:24.715Z,27.13
2022-09-12T15:00:56.099Z,27.13
2022-09-12T15:02:27.597Z,27.08
2022-09-12T15:03:58.990Z,27.13
2022-09-12T15:05:30.432Z,27.27
2022-09-12T15:07:13.088Z,27.38
2022-09-12T15:08:44.484Z,27.50
2022-09-12T15:10:25.153Z,27.62
2022-09-12T15:11:56.536Z,27.70
2022-09-12T15:13:28.272Z,27.76
2022-09-12T15:15:00.930Z,27.80
2022-09-12T15:16:32.340Z,27.78
2022-09-12T15:18:06.633Z,27.63
2022-09-12T15:19:38.416Z,27.50
2022-09-12T15:21:14.045Z,27.35
2022-09-12T15:22:45.450Z,27.24
2022-09-12T15:24:16.835Z,27.15
2022-09-12T15:25:48.262Z,27.11
2022-09-12T15:27:19.628Z,27.05
2022-09-12T15:28:51.087Z,27.02
2022-09-12T15:30:22.576Z,27.00
2022-09-12T15:31:53.957Z,27.00
2022-09-12T15:33:25.381Z,26.98
2022-09-12T15:34:56.769Z,26.96
2022-09-12T15:36:28.239Z,26.95
2022-09-12T15:37:59.633Z,26.90
2022-09-12T15:39:31.064Z,26.87
2022-09-12T15:41:02.458Z,26.83
2022-09-12T15:42:33.930Z,26.81
2022-09-12T15:44:05.895Z,26.79
2022-09-12T15:45:37.358Z,26.77
2022-09-12T15:47:10.108Z,26.78
2022-09-12T15:48:41.501Z,26.78
2022-09-12T15:50:12.971Z,26.79
2022-09-12T15:51:44.425Z,26.79
2022-09-12T15:53:15.919Z,26.79
2022-09-12T15:54:47.938Z,26.78
2022-09-12T15:56:20.319Z,26.77
2022-09-12T15:57:51.752Z,26.77
2022-09-12T15:59:23.140Z,26.76
2022-09-12T16:00:54.700Z,26.74
2022-09-12T16:02:26.095Z,26.73
2022-09-12T16:03:57.558Z,26.72
2022-09-12T16:05:28.958Z,26.68
2022-09-12T16:07:00.370Z,26.65
2022-09-12T16:08:31.842Z,26.63
2022-09-12T16:10:03.300Z,26.62
2022-09-12T16:11:34.766Z,26.60
2022-09-12T16:13:06.153Z,26.56
2022-09-12T16:14:37.554Z,26.55
2022-09-12T16:16:09.130Z,26.53
2022-09-12T16:17:40.609Z,26.52
2022-09-12T16:19:11.990Z,26.50
2022-09-12T16:20:43.407Z,26.48
2022-09-12T16:22:14.789Z,26.49
2022-09-12T16:23:47.669Z,26.47
2022-09-12T16:25:19.059Z,26.46
2022-09-12T16:26:50.487Z,26.46
2022-09-12T16:28:21.997Z,26.42
2022-09-12T16:29:53.442Z,26.41
2022-09-12T16:31:25.063Z,26.38
2022-09-12T16:32:56.570Z,26.37
2022-09-12T16:34:27.945Z,26.34
2022-09-12T16:36:06.206Z,26.32
2022-09-12T16:37:37.605Z,26.29
2022-09-12T16:39:09.033Z,26.27
2022-09-12T16:40:40.421Z,26.26
2022-09-12T16:42:11.805Z,26.25
2022-09-12T16:43:43.630Z,26.23
2022-09-12T16:45:15.049Z,26.22
2022-09-12T16:46:46.491Z,26.21
2022-09-12T16:48:17.927Z,26.18
2022-09-12T16:49:49.326Z,26.18
2022-09-12T16:51:22.155Z,26.16
2022-09-12T16:52:53.540Z,26.13
2022-09-12T16:54:24.927Z,26.12
2022-09-12T16:55:56.336Z,26.11
2022-09-12T16:57:27.730Z,26.09
2022-09-12T16:58:59.134Z,26.08
2022-09-12T17:00:30.503Z,26.05
2022-09-12T17:02:02.058Z,26.03
2022-09-12T17:03:33.560Z,26.00
2022-09-12T17:05:05.207Z,26.00
2022-09-12T17:06:36.682Z,25.99
2022-09-12T17:08:08.092Z,25.94
2022-09-12T17:09:39.492Z,25.96
2022-09-12T17:11:21.131Z,25.95
2022-09-12T17:12:52.542Z,25.94
2022-09-12T17:14:24.017Z,25.93
2022-09-12T17:15:55.499Z,25.91
2022-09-12T17:17:26.938Z,25.89
2022-09-12T17:18:58.352Z,25.88
2022-09-12T17:20:29.755Z,25.88
2022-09-12T17:22:01.197Z,25.88
2022-09-12T17:23:32.956Z,25.86
2022-09-12T17:25:04.611Z,25.85
2022-09-12T17:26:36.143Z,25.83
2022-09-12T17:28:07.556Z,25.83
2022-09-12T17:29:39.008Z,25.83
2022-09-12T17:31:11.051Z,25.82
2022-09-12T17:32:42.681Z,25.81
2022-09-12T17:34:14.089Z,25.81
2022-09-12T17:35:45.665Z,25.80
2022-09-12T17:37:17.358Z,25.79
2022-09-12T17:38:49.056Z,25.79
2022-09-12T17:40:25.864Z,25.77
2022-09-12T17:42:09.025Z,25.75
2022-09-12T17:43:40.471Z,25.74
2022-09-12T17:45:16.325Z,25.73
2022-09-12T17:46:49.677Z,25.71
2022-09-12T17:48:21.124Z,25.70
2022-09-12T17:49:52.531Z,25.69
2022-09-12T17:51:24.618Z,25.68
2022-09-12T17:52:56.205Z,25.68
2022-09-12T17:54:27.760Z,25.66
2022-09-12T17:56:01.221Z,25.66
2022-09-12T17:57:32.679Z,25.64
2022-09-12T17:59:04.368Z,25.64
2022-09-12T18:00:35.803Z,25.63
2022-09-12T18:02:10.802Z,25.64
2022-09-12T18:03:42.678Z,25.60
2022-09-12T18:05:14.609Z,25.56
2022-09-12T18:06:46.232Z,25.49
2022-09-12T18:08:17.991Z,25.44
2022-09-12T18:09:50.288Z,25.36
2022-09-12T18:11:21.977Z,25.32
2022-09-12T18:12:53.714Z,25.28
2022-09-12T18:14:25.525Z,25.25
2022-09-12T18:16:02.262Z,25.21
2022-09-12T18:17:33.868Z,25.19
2022-09-12T18:19:05.618Z,25.19
2022-09-12T18:20:37.355Z,25.20
2022-09-12T18:22:09.035Z,25.24
2022-09-12T18:23:40.772Z,25.26
2022-09-12T18:25:12.479Z,25.26
2022-09-12T18:26:44.122Z,25.30
2022-09-12T18:28:15.813Z,25.32
2022-09-12T18:30:04.178Z,25.34
2022-09-12T18:31:36.224Z,25.36
2022-09-12T18:33:08.232Z,25.38
2022-09-12T18:34:39.965Z,25.38
2022-09-12T18:36:11.994Z,25.40
2022-09-12T18:37:43.714Z,25.42
2022-09-12T18:39:15.363Z,25.42
2022-09-12T18:40:47.214Z,25.43
2022-09-12T18:42:18.671Z,25.44
2022-09-12T18:43:56.827Z,25.44
2022-09-12T18:45:28.661Z,25.45
2022-09-12T18:47:02.098Z,25.45
2022-09-12T18:48:34.131Z,25.46
2022-09-12T18:50:06.274Z,25.47
2022-09-12T18:51:38.034Z,25.48
2022-09-12T18:53:09.776Z,25.47
2022-09-12T18:54:41.211Z,25.48
2022-09-12T18:56:13.221Z,25.49
2022-09-12T18:57:44.714Z,25.49
2022-09-12T18:59:16.446Z,25.48
2022-09-12T19:00:48.271Z,25.49
2022-09-12T19:02:19.813Z,25.50
2022-09-12T19:03:51.705Z,25.50
2022-09-12T19:05:23.180Z,25.50
2022-09-12T19:06:54.932Z,25.51
2022-09-12T19:08:26.678Z,25.51
2022-09-12T19:09:58.467Z,25.50
2022-09-12T19:11:30.249Z,25.50
2022-09-12T19:13:01.744Z,25.51
2022-09-12T19:14:33.487Z,25.52
2022-09-12T19:16:05.632Z,25.50
2022-09-12T19:17:37.497Z,25.51
2022-09-12T19:19:09.370Z,25.52
2022-09-12T19:20:41.119Z,25.51
2022-09-12T19:22:13.018Z,25.52
2022-09-12T19:23:44.803Z,25.51
2022-09-12T19:25:17.284Z,25.52
2022-09-12T19:26:49.115Z,25.53
2022-09-12T19:28:21.991Z,25.53
2022-09-12T19:29:53.699Z,25.52
2022-09-12T19:31:25.580Z,25.53
2022-09-12T19:32:57.345Z,25.53
2022-09-12T19:34:29.102Z,25.53
2022-09-12T19:36:01.479Z,25.53
2022-09-12T19:37:33.240Z,25.52
2022-09-12T19:39:05.092Z,25.54
2022-09-12T19:40:36.799Z,25.54
2022-09-12T19:42:08.477Z,25.53
2022-09-12T19:43:40.015Z,25.52
2022-09-12T19:45:11.627Z,25.53
2022-09-12T19:46:43.564Z,25.53
2022-09-12T19:48:15.232Z,25.56
2022-09-12T19:49:46.822Z,25.54
2022-09-12T19:51:18.560Z,25.57
2022-09-12T19:52:50.410Z,25.58
2022-09-12T19:54:21.834Z,25.57
2022-09-12T19:55:53.240Z,25.57
2022-09-12T19:57:24.681Z,25.57
2022-09-12T19:58:56.959Z,25.56
2022-09-12T20:00:28.521Z,25.57
2022-09-12T20:02:00.432Z,25.53
2022-09-12T20:03:32.211Z,25.52
2022-09-12T20:05:04.337Z,25.53
2022-09-12T20:06:35.729Z,25.51
2022-09-12T20:08:07.145Z,25.45
2022-09-12T20:09:38.540Z,25.50
2022-09-12T20:11:13.801Z,25.49
2022-09-12T20:12:45.192Z,25.48
2022-09-12T20:14:16.741Z,25.48
2022-09-12T20:15:48.220Z,25.47
2022-09-12T20:17:19.715Z,25.47
2022-09-12T20:19:09.386Z,25.46
2022-09-12T20:20:40.773Z,25.45
2022-09-12T20:22:12.176Z,25.44
2022-09-12T20:23:43.889Z,25.44
2022-09-12T20:25:15.334Z,25.43
2022-09-12T20:26:46.752Z,25.41
2022-09-12T20:28:18.206Z,25.41
2022-09-12T20:29:49.589Z,25.41
2022-09-12T20:31:21.251Z,25.41
2022-09-12T20:32:52.676Z,25.39
2022-09-12T20:34:24.164Z,25.38
2022-09-12T20:36:05.249Z,25.38
2022-09-12T20:37:36.764Z,25.38
2022-09-12T20:39:11.584Z,25.37
2022-09-12T20:40:47.709Z,25.36
2022-09-12T20:42:19.084Z,25.36
2022-09-12T20:43:50.890Z,25.37
2022-09-12T20:45:22.279Z,25.35
2022-09-12T20:46:53.728Z,25.34
2022-09-12T20:48:25.224Z,25.35
2022-09-12T20:49:56.604Z,25.33
2022-09-12T20:51:28.355Z,25.33
2022-09-12T20:52:59.752Z,25.33
2022-09-12T20:54:31.170Z,25.33
2022-09-12T20:56:02.849Z,25.34
2022-09-12T20:57:34.294Z,25.32
2022-09-12T20:59:05.694Z,25.32
2022-09-12T21:00:38.061Z,25.32
2022-09-12T21:02:10.019Z,25.31
2022-09-12T21:03:41.963Z,25.30
2022-09-12T21:05:13.489Z,25.30
2022-09-12T21:06:44.878Z,25.30
2022-09-12T21:08:16.295Z,25.29
2022-09-12T21:09:47.683Z,25.29
2022-09-12T21:11:19.343Z,25.28
2022-09-12T21:12:51.944Z,25.28
2022-09-12T21:14:23.392Z,25.27
2022-09-12T21:16:04.430Z,25.27
2022-09-12T21:17:35.954Z,25.27
2022-09-12T21:19:07.418Z,25.26
2022-09-12T21:20:38.832Z,25.27
2022-09-12T21:22:10.209Z,25.26
2022-09-12T21:23:41.692Z,25.27
2022-09-12T21:25:13.126Z,25.25
2022-09-12T21:26:44.580Z,25.26
2022-09-12T21:28:16.343Z,25.25
2022-09-12T21:29:47.796Z,25.24
2022-09-12T21:31:19.270Z,25.24
2022-09-12T21:32:50.708Z,25.24
2022-09-12T21:34:22.116Z,25.23
2022-09-12T21:35:53.571Z,25.23
2022-09-12T21:37:24.941Z,25.24
2022-09-12T21:38:59.157Z,25.23
2022-09-12T21:40:30.560Z,25.23
2022-09-12T21:42:02.047Z,25.23
2022-09-12T21:43:33.498Z,25.22
2022-09-12T21:45:05.180Z,25.21
2022-09-12T21:46:36.680Z,25.21
2022-09-12T21:48:08.170Z,25.21
2022-09-12T21:49:39.561Z,25.20
2022-09-12T21:51:11.014Z,25.21
2022-09-12T21:52:42.409Z,25.20
2022-09-12T21:54:13.816Z,25.21
2022-09-12T21:55:45.205Z,25.20
2022-09-12T21:57:16.717Z,25.20
2022-09-12T21:58:48.103Z,25.19
2022-09-12T22:00:19.521Z,25.19
2022-09-12T22:01:50.997Z,25.19
2022-09-12T22:03:22.427Z,25.20
2022-09-12T22:04:54.232Z,25.18
2022-09-12T22:06:25.732Z,25.19
2022-09-12T22:07:57.133Z,25.18
2022-09-12T22:09:28.592Z,25.19
2022-09-12T22:11:00.349Z,25.18
2022-09-12T22:12:31.776Z,25.17
2022-09-12T22:14:03.192Z,25.17
2022-09-12T22:15:41.826Z,25.18
2022-09-12T22:17:13.472Z,25.17
2022-09-12T22:18:44.984Z,25.17
2022-09-12T22:20:16.396Z,25.10
2022-09-12T22:21:47.822Z,25.17
2022-09-12T22:23:23.790Z,25.17
2022-09-12T22:24:56.132Z,25.16
2022-09-12T22:26:27.589Z,25.16
2022-09-12T22:27:59.041Z,25.15
2022-09-12T22:29:30.436Z,25.16
2022-09-12T22:31:01.887Z,25.15
2022-09-12T22:32:35.003Z,25.16
2022-09-12T22:34:06.556Z,25.15
2022-09-12T22:35:37.937Z,25.15
2022-09-12T22:37:09.415Z,25.14
2022-09-12T22:38:40.805Z,25.14
2022-09-12T22:40:12.283Z,25.14
2022-09-12T22:41:43.708Z,25.14
2022-09-12T22:43:15.117Z,25.15
2022-09-12T22:44:49.075Z,25.14
2022-09-12T22:46:20.499Z,25.14
2022-09-12T22:47:51.997Z,25.14
2022-09-12T22:49:23.377Z,25.14
2022-09-12T22:50:54.831Z,25.13
2022-09-12T22:52:26.247Z,25.13
2022-09-12T22:53:57.724Z,25.14
2022-09-12T22:55:29.121Z,25.13
2022-09-12T22:57:00.529Z,25.13
2022-09-12T22:58:32.573Z,25.13
2022-09-12T23:00:04.608Z,25.13
2022-09-12T23:01:36.017Z,25.12
2022-09-12T23:03:07.469Z,25.13
2022-09-12T23:04:38.902Z,25.12
2022-09-12T23:06:10.546Z,25.11
2022-09-12T23:07:41.912Z,25.11
2022-09-12T23:09:13.333Z,25.12
2022-09-12T23:10:44.726Z,25.12
2022-09-12T23:12:16.148Z,25.11
2022-09-12T23:13:47.849Z,25.11
2022-09-12T23:15:19.299Z,25.11
2022-09-12T23:16:50.693Z,25.11
2022-09-12T23:18:22.081Z,25.11
2022-09-12T23:19:53.453Z,25.11
2022-09-12T23:21:24.863Z,25.10
2022-09-12T23:22:56.253Z,25.10
2022-09-12T23:24:27.616Z,25.11
2022-09-12T23:26:02.097Z,25.11
2022-09-12T23:27:33.492Z,25.11
2022-09-12T23:29:04.898Z,25.11
2022-09-12T23:30:36.292Z,25.10
2022-09-12T23:32:07.757Z,25.11
2022-09-12T23:33:39.145Z,25.10
2022-09-12T23:35:10.547Z,25.10
2022-09-12T23:36:41.936Z,25.09
2022-09-12T23:38:14.708Z,25.10
2022-09-12T23:39:46.319Z,25.09
2022-09-12T23:41:18.060Z,25.10
2022-09-12T23:42:49.437Z,25.10
2022-09-12T23:44:20.882Z,25.10
2022-09-12T23:45:52.321Z,25.09
2022-09-12T23:47:23.732Z,25.09
2022-09-12T23:48:55.120Z,25.09
2022-09-12T23:50:26.539Z,25.08
2022-09-12T23:51:57.922Z,25.09
2022-09-12T23:53:29.323Z,25.09
2022-09-12T23:55:00.710Z,25.07
2022-09-12T23:56:32.155Z,25.08
2022-09-12T23:58:03.567Z,25.07
2022-09-12T23:59:34.975Z,25.08
